Time;durP1;ratioP1;P1;durP2;ratioP2;P2;SDS_P1;SDS_P2;PMS_P1;PMS_P2;Temp;Humidity;BMP_temperature;BMP_pressure;BME280_temperature;BME280_humidity;BME280_pressure;Samples;Min_cycle;Max_cycle;Signal;HPM_P1;HPM_P2
2022/10/03 00:03:06;;;;;;;1.40;1.30;;;;;;;14.08;73.75;99721.31;4469701;32;34895;-73
2022/10/03 00:05:50;;;;;;;2.15;1.40;;;;;;;14.35;72.67;99727.31;4468600;32;34106;-73
2022/10/03 00:08:46;;;;;;;1.50;1.30;;;;;;;14.45;72.13;99729.22;4468001;32;33641;-79
2022/10/03 00:11:53;;;;;;;2.45;1.48;;;;;;;13.94;73.54;99721.06;4467505;32;34011;-77
2022/10/03 00:14:24;;;;;;;;;;;;;;;14.32;72.61;99735.25;4470401;32;34223;-79
2022/10/03 00:16:55;;;;;;;1.67;1.52;;;;;;;14.08;73.55;99738.53;4468371;32;34092;-78
2022/10/03 00:19:34;;;;;;;2.42;1.50;;;;;;;14.04;73.24;99740.16;4469331;32;33453;-72
2022/10/03 00:22:20;;;;;;;1.87;1.20;;;;;;;14.33;72.05;99737.69;4468234;32;33719;-74
2022/10/03 00:25:04;;;;;;;1.90;1.30;;;;;;;13.65;75.27;99745.25;4469435;32;33851;-79
2022/10/03 00:28:10;;;;;;;1.30;1.12;;;;;;;13.91;73.84;99740.69;4469571;32;34227;-73
2022/10/03 00:31:23;;;;;;;2.10;1.77;;;;;;;14.05;73.51;99732.78;4469638;32;33643;-73
2022/10/03 00:33:51;;;;;;;2.05;1.35;;;;;;;14.20;72.21;99740.97;4465278;32;33844;-76
2022/10/03 00:36:40;;;;;;;1.12;1.02;;;;;;;13.62;74.76;99748.53;4469068;32;34919;-79
2022/10/03 00:39:20;;;;;;;1.95;1.40;;;;;;;13.91;73.65;99738.78;4469543;32;34665;-78
2022/10/03 00:42:11;;;;;;;2.05;1.30;;;;;;;13.50;74.89;99738.72;4469552;32;33451;-76
2022/10/03 00:45:28;;;;;;;1.58;1.30;;;;;;;13.80;74.03;99741.75;4469196;32;33779;-73
2022/10/03 00:48:17;;;;;;;1.87;1.20;;;;;;;13.85;73.20;99758.16;4468180;32;33927;-74
2022/10/03 00:50:54;;;;;;;1.67;1.37;;;;;;;13.58;74.22;99740.06;4468946;32;34779;-73
2022/10/03 00:53:53;;;;;;;2.15;1.40;;;;;;;13.69;73.67;99741.75;4469408;32;34236;-75
2022/10/03 00:56:53;;;;;;;2.17;1.37;;;;;;;13.73;73.66;99748.28;4450984;32;33567;-72
2022/10/03 00:59:36;;;;;;;1.67;1.45;;;;;;;13.27;75.84;99739.94;4468321;32;33755;-80
2022/10/03 01:02:32;;;;;;;1.73;1.40;;;;;;;13.67;73.55;99743.09;4468155;32;34053;-73
2022/10/03 01:05:23;;;;;;;1.60;1.40;;;;;;;13.97;72.68;99741.50;4469122;32;33296;-73
2022/10/03 01:08:18;;;;;;;1.33;1.17;;;;;;;13.80;72.98;99734.41;4468779;32;33780;-79
2022/10/03 01:11:16;;;;;;;1.12;1.02;;;;;;;13.67;72.64;99735.75;4469346;32;34176;-73
2022/10/03 01:13:52;;;;;;;1.80;1.50;;;;;;;13.44;74.52;99731.59;4468791;32;34051;-73
2022/10/03 01:16:38;;;;;;;3.17;1.85;;;;;;;13.45;74.65;99724.22;4468853;32;33323;-75
2022/10/03 01:19:21;;;;;;;2.67;1.58;;;;;;;12.92;76.73;99732.47;4468905;32;34821;-73
2022/10/03 01:22:22;;;;;;;2.12;1.40;;;;;;;13.30;75.38;99733.19;4469939;32;34971;-77
2022/10/03 01:25:17;;;;;;;4.03;1.62;;;;;;;12.97;77.14;99748.81;4471003;32;34819;-73
2022/10/03 01:31:09;;;;;;;3.20;1.50;;;;;;;12.98;76.94;99761.34;4469801;32;34721;-74
2022/10/03 01:33:44;;;;;;;3.85;1.50;;;;;;;12.98;77.11;99774.13;4469561;32;35123;-73
2022/10/03 01:36:32;;;;;;;2.95;1.70;;;;;;;12.87;76.93;99768.66;4470645;32;34085;-73
2022/10/03 01:39:05;;;;;;;2.92;1.70;;;;;;;13.13;76.36;99775.06;4469741;32;34251;-80
2022/10/03 01:41:59;;;;;;;2.00;1.42;;;;;;;12.70;78.08;99768.81;4470641;32;33849;-73
2022/10/03 01:44:57;;;;;;;2.40;1.67;;;;;;;13.05;76.07;99777.47;4469831;32;34254;-73
2022/10/03 01:47:33;;;;;;;5.05;1.85;;;;;;;13.16;75.96;99784.59;4470221;32;34489;-76
2022/10/03 01:50:16;;;;;;;4.12;1.50;;;;;;;12.99;76.50;99787.50;4469455;32;33202;-74
2022/10/03 01:52:57;;;;;;;4.60;2.00;;;;;;;12.61;78.15;99769.56;4469496;32;34602;-73
2022/10/03 01:55:55;;;;;;;2.87;1.65;;;;;;;12.95;76.65;99775.47;4469490;32;34085;-73
2022/10/03 01:58:34;;;;;;;2.05;1.55;;;;;;;13.29;74.26;99780.59;4469399;32;33965;-73
2022/10/03 02:01:19;;;;;;;2.72;1.70;;;;;;;12.90;76.41;99783.62;4469420;32;34136;-74
2022/10/03 02:04:04;;;;;;;4.35;1.60;;;;;;;13.18;75.58;99781.63;4469383;32;34011;-74
2022/10/03 02:06:34;;;;;;;2.22;1.60;;;;;;;13.42;74.38;99779.28;4470678;32;34239;-79
2022/10/03 02:09:24;;;;;;;2.45;1.95;;;;;;;13.19;75.12;99785.97;4474567;32;33869;-79
2022/10/03 02:12:29;;;;;;;2.80;1.55;;;;;;;13.27;74.76;99780.81;4486442;32;33463;-73
2022/10/03 02:15:00;;;;;;;2.95;1.90;;;;;;;13.66;73.09;99791.34;4452779;32;33908;-77
2022/10/03 02:17:29;;;;;;;2.65;1.75;;;;;;;13.34;74.27;99788.78;4467201;32;34075;-79
2022/10/03 02:20:32;;;;;;;3.15;1.95;;;;;;;13.33;74.01;99792.59;4470442;32;34336;-76
2022/10/03 02:22:59;;;;;;;2.47;1.62;;;;;;;13.22;74.60;99786.25;4453941;32;33704;-78
2022/10/03 02:25:45;;;;;;;2.95;1.62;;;;;;;13.04;75.44;99789.41;4469496;32;34057;-74
2022/10/03 02:28:54;;;;;;;2.40;1.65;;;;;;;12.73;76.42;99791.97;4470511;32;34662;-73
2022/10/03 02:31:31;;;;;;;1.92;1.70;;;;;;;12.96;75.78;99796.19;4470997;32;34491;-79
2022/10/03 02:34:20;;;;;;;2.70;1.70;;;;;;;13.30;73.80;99801.28;4468422;32;33447;-73
2022/10/03 02:36:56;;;;;;;2.55;1.67;;;;;;;13.51;72.73;99805.75;4470406;32;33890;-73
2022/10/03 02:39:54;;;;;;;2.22;1.60;;;;;;;13.39;73.42;99804.34;4470014;32;34297;-78
2022/10/03 02:42:34;;;;;;;2.60;1.73;;;;;;;13.50;72.62;99806.03;4470266;32;33894;-73
2022/10/03 02:45:22;;;;;;;2.62;1.77;;;;;;;13.37;72.92;99814.69;4470300;32;33457;-78
2022/10/03 02:48:18;;;;;;;2.92;1.73;;;;;;;13.66;71.93;99817.81;4470078;32;34701;-73
2022/10/03 02:51:20;;;;;;;2.60;1.80;;;;;;;13.67;71.74;99808.53;4470186;32;33977;-72
2022/10/03 02:54:26;;;;;;;1.83;1.48;;;;;;;13.48;72.31;99810.94;4468855;32;33978;-72
2022/10/03 02:57:02;;;;;;;3.30;2.10;;;;;;;13.54;72.07;99807.97;4470283;32;33504;-74
2022/10/03 03:00:07;;;;;;;2.75;1.83;;;;;;;13.41;72.39;99808.47;4470159;32;33631;-73
2022/10/03 03:02:46;;;;;;;2.40;1.90;;;;;;;13.83;70.83;99812.13;4454501;32;34888;-79
2022/10/03 03:05:24;;;;;;;2.33;2.12;;;;;;;13.48;72.05;99805.47;4470219;32;34734;-74
2022/10/03 03:08:01;;;;;;;3.03;2.10;;;;;;;13.43;71.83;99802.72;4474548;32;33628;-72
2022/10/03 03:10:57;;;;;;;3.30;1.95;;;;;;;13.31;72.31;99801.03;4485737;32;34076;-73
2022/10/03 03:14:01;;;;;;;2.58;1.70;;;;;;;13.32;72.09;99808.13;4485855;32;34028;-73
2022/10/03 03:16:38;;;;;;;4.43;2.10;;;;;;;13.23;72.52;99808.88;4470276;32;33772;-72
2022/10/03 03:19:25;;;;;;;3.10;2.10;;;;;;;13.38;71.88;99813.59;4470001;32;33526;-73
2022/10/03 03:21:58;;;;;;;2.72;2.08;;;;;;;12.96;73.59;99809.81;4470292;32;33901;-73
2022/10/03 03:24:31;;;;;;;2.92;2.12;;;;;;;12.50;76.15;99807.59;4479575;32;34323;-73
2022/10/03 03:27:21;;;;;;;4.00;2.20;;;;;;;12.91;74.43;99821.50;4485820;32;34035;-73
2022/10/03 03:29:51;;;;;;;3.17;2.12;;;;;;;13.13;73.16;99825.97;4483697;32;33584;-73
2022/10/03 03:32:29;;;;;;;4.25;2.30;;;;;;;12.96;73.35;99808.97;4485589;32;34666;-73
2022/10/03 03:35:24;;;;;;;3.20;1.90;;;;;;;12.55;75.20;99817.69;4485772;32;35330;-72
2022/10/03 03:38:25;;;;;;;2.55;2.03;;;;;;;12.82;74.37;99817.63;4485695;32;34651;-71
2022/10/03 03:41:00;;;;;;;3.72;2.15;;;;;;;13.05;73.42;99813.69;4485652;32;33207;-73
2022/10/03 03:43:43;;;;;;;2.78;2.10;;;;;;;12.73;74.64;99816.47;4483618;32;34140;-74
2022/10/03 03:47:00;;;;;;;2.80;1.85;;;;;;;12.78;74.62;99819.22;4485639;32;34358;-74
2022/10/03 03:49:41;;;;;;;2.85;2.10;;;;;;;13.25;72.48;99825.78;4484610;32;34030;-73
2022/10/03 03:52:53;;;;;;;3.03;2.45;;;;;;;13.19;72.40;99827.63;4479847;32;34343;-72
2022/10/03 03:55:30;;;;;;;3.05;2.40;;;;;;;13.17;72.62;99826.28;4436582;32;33432;-73
2022/10/03 03:58:17;;;;;;;3.90;2.08;;;;;;;13.24;72.26;99830.41;4468292;32;33782;-73
2022/10/03 04:00:57;;;;;;;3.62;2.30;;;;;;;13.06;72.77;99831.66;4479769;32;34034;-77
2022/10/03 04:03:34;;;;;;;3.90;2.05;;;;;;;13.48;71.42;99833.56;4468391;32;33466;-73
2022/10/03 04:06:35;;;;;;;3.10;2.33;;;;;;;13.34;71.27;99824.22;4469963;32;33948;-80
2022/10/03 04:09:19;;;;;;;3.08;1.95;;;;;;;13.16;72.13;99832.81;4478620;32;34008;-73
2022/10/03 04:11:58;;;;;;;3.30;2.10;;;;;;;13.10;72.19;99827.31;4482637;32;33794;-74
2022/10/03 04:15:01;;;;;;;4.20;2.53;;;;;;;13.02;72.57;99827.81;4468591;32;33571;-73
2022/10/03 04:21:05;;;;;;;3.10;2.00;;;;;;;12.98;72.19;99828.59;4469821;32;34279;-73
2022/10/03 04:23:58;;;;;;;4.30;2.22;;;;;;;12.94;72.64;99831.06;4468342;32;34021;-73
2022/10/03 04:27:10;;;;;;;3.37;2.40;;;;;;;12.73;73.47;99836.34;4468513;32;34052;-73
2022/10/03 04:30:03;;;;;;;4.12;2.37;;;;;;;13.18;71.21;99836.09;4443632;32;33764;-74
2022/10/03 04:32:59;;;;;;;2.95;2.12;;;;;;;13.16;71.74;99855.41;4469514;32;35120;-75
2022/10/03 04:35:32;;;;;;;3.45;2.42;;;;;;;12.85;72.53;99860.66;4469390;32;34031;-74
2022/10/03 04:38:14;;;;;;;4.97;2.72;;;;;;;12.79;73.00;99859.00;4469364;32;33659;-74
2022/10/03 04:41:11;;;;;;;2.83;2.50;;;;;;;12.86;72.84;99866.94;4468561;32;33985;-74
2022/10/03 04:43:47;;;;;;;3.70;2.35;;;;;;;13.03;72.21;99859.44;4469285;32;35096;-74
2022/10/03 04:46:24;;;;;;;4.70;2.22;;;;;;;12.85;72.79;99866.13;4469277;32;34699;-78
2022/10/03 04:49:27;;;;;;;4.80;2.53;;;;;;;13.15;71.76;99867.38;4468046;32;33746;-74
2022/10/03 04:51:58;;;;;;;2.78;2.10;;;;;;;13.12;71.91;99874.19;4467959;32;33709;-74
2022/10/03 04:54:47;;;;;;;5.87;3.20;;;;;;;13.07;71.67;99876.88;4469431;32;35057;-74
2022/10/03 04:57:29;;;;;;;4.25;2.60;;;;;;;13.23;70.83;99872.34;4467187;32;34011;-74
2022/10/03 05:00:15;;;;;;;4.50;3.00;;;;;;;12.85;72.38;99874.28;4468096;32;33325;-74
2022/10/03 05:02:47;;;;;;;;;;;;;;;12.79;72.99;99880.78;4469479;32;34736;-74
2022/10/03 05:05:38;;;;;;;3.78;2.47;;;;;;;12.79;72.61;99878.03;4467832;32;35016;-75
2022/10/03 05:08:43;;;;;;;3.20;2.40;;;;;;;12.74;73.23;99880.72;4467831;32;34977;-74
2022/10/03 05:11:41;;;;;;;3.30;2.60;;;;;;;12.67;73.63;99883.66;4468928;32;34527;-74
2022/10/03 05:14:17;;;;;;;6.50;5.10;;;;;;;12.11;75.90;99881.22;4469213;32;33854;-75
2022/10/03 05:17:06;;;;;;;5.35;3.10;;;;;;;12.59;74.53;99886.03;4469002;32;34186;-74
2022/10/03 05:20:22;;;;;;;3.75;2.60;;;;;;;12.60;74.21;99883.06;4467493;32;34847;-77
2022/10/03 05:22:59;;;;;;;;;;;;;;;12.69;74.45;99886.94;4436029;32;34278;-74
2022/10/03 05:25:53;;;;;;;3.62;2.40;;;;;;;12.70;74.26;99876.88;4464979;32;34289;-76
2022/10/03 05:28:35;;;;;;;3.55;2.65;;;;;;;12.69;74.27;99881.50;4468914;32;33965;-81
2022/10/03 05:31:06;;;;;;;3.40;2.47;;;;;;;12.80;73.11;99873.41;4478781;32;33662;-77
2022/10/03 05:33:42;;;;;;;4.30;2.30;;;;;;;12.68;73.48;99870.87;4468584;32;33098;-76
2022/10/03 05:36:24;;;;;;;3.30;2.50;;;;;;;12.59;74.01;99875.12;4467017;32;34633;-77
2022/10/03 05:39:00;;;;;;;3.10;2.25;;;;;;;12.81;72.90;99872.34;4468687;32;34220;-76
2022/10/03 05:41:31;;;;;;;4.62;2.30;;;;;;;12.85;73.16;99876.16;4468755;32;34179;-76
2022/10/03 05:44:14;;;;;;;3.70;2.60;;;;;;;13.01;72.20;99875.22;4467541;32;33407;-76
2022/10/03 05:47:02;;;;;;;3.83;2.33;;;;;;;12.92;71.95;99869.44;4467224;32;33901;-77
2022/10/03 05:50:13;;;;;;;3.25;2.20;;;;;;;13.03;72.29;99881.22;4467422;32;35060;-76
2022/10/03 05:53:12;;;;;;;2.83;2.33;;;;;;;13.42;70.07;99885.56;4466627;32;33963;-76
2022/10/03 05:55:45;;;;;;;3.33;2.10;;;;;;;13.73;68.26;99892.81;4468450;32;34299;-76
2022/10/03 05:58:35;;;;;;;3.22;1.90;;;;;;;13.94;68.12;99896.44;4467819;32;33802;-75
2022/10/03 06:01:36;;;;;;;2.75;2.00;;;;;;;14.04;67.44;99892.94;4468102;32;33908;-77
2022/10/03 06:04:46;;;;;;;3.30;1.90;;;;;;;14.30;66.47;99895.72;4482573;32;34784;-76
2022/10/03 06:07:27;;;;;;;3.92;1.98;;;;;;;14.52;64.86;99898.22;4467702;31;33876;-78
2022/10/03 06:10:20;;;;;;;4.45;2.00;;;;;;;14.78;63.64;99899.09;4486070;32;34817;-77
2022/10/03 06:13:03;;;;;;;2.37;1.70;;;;;;;15.27;62.82;99914.06;4484915;32;34248;-78
2022/10/03 06:15:55;;;;;;;1.77;1.58;;;;;;;14.63;64.90;99920.94;4486427;32;33838;-78
2022/10/03 06:18:27;;;;;;;2.20;1.52;;;;;;;15.23;61.89;99922.00;4484865;32;33294;-77
2022/10/03 06:21:06;;;;;;;3.72;1.65;;;;;;;14.63;63.71;99931.84;4484939;32;34855;-79
2022/10/03 06:24:12;;;;;;;2.35;1.50;;;;;;;15.22;62.72;99944.16;4485991;32;34374;-78
2022/10/03 06:27:11;;;;;;;3.28;1.75;;;;;;;15.27;61.26;99950.44;4468371;32;34099;-81
2022/10/03 06:30:04;;;;;;;4.28;1.60;;;;;;;15.46;61.02;99945.19;4485983;32;34214;-77
2022/10/03 06:33:09;;;;;;;3.20;1.37;;;;;;;15.93;59.11;99943.19;4484998;32;34047;-81
2022/10/03 06:36:00;;;;;;;2.40;1.50;;;;;;;15.88;60.09;99952.25;4486024;32;35070;-81
2022/10/03 06:39:05;;;;;;;3.92;1.60;;;;;;;15.98;58.67;99941.25;4484769;32;33776;-80
2022/10/03 06:41:42;;;;;;;6.87;1.60;;;;;;;15.57;59.22;99943.25;4485966;32;34422;-82
2022/10/03 06:44:27;;;;;;;3.95;1.52;;;;;;;15.04;60.39;99951.00;4486220;32;34157;-82
2022/10/03 06:47:25;;;;;;;3.95;1.67;;;;;;;15.91;58.44;99950.84;4485818;32;34276;-81
2022/10/03 06:50:11;;;;;;;2.17;1.15;;;;;;;15.44;59.21;99955.59;4472124;31;33812;-85
2022/10/03 06:53:04;;;;;;;5.35;1.90;;;;;;;15.12;60.14;99948.53;4485270;32;33454;-83
2022/10/03 06:55:50;;;;;;;2.50;1.60;;;;;;;15.51;58.74;99947.13;4484055;32;34494;-82
2022/10/03 06:58:55;;;;;;;2.20;1.30;;;;;;;15.61;57.73;99957.22;4485697;32;34160;-81
2022/10/03 07:01:49;;;;;;;2.95;1.40;;;;;;;15.91;57.48;99939.91;4484619;32;34022;-81
2022/10/03 07:04:51;;;;;;;1.40;1.20;;;;;;;16.19;57.15;99955.66;4484656;32;34616;-81
2022/10/03 07:07:44;;;;;;;3.17;1.42;;;;;;;16.05;57.18;99948.34;4481378;32;33793;-79
2022/10/03 07:10:51;;;;;;;2.87;1.42;;;;;;;15.63;57.75;99952.28;4470060;32;34089;-75
2022/10/03 07:13:47;;;;;;;2.75;1.40;;;;;;;15.77;58.35;99948.72;4466874;32;35269;-76
2022/10/03 07:16:23;;;;;;;3.55;1.58;;;;;;;15.34;58.96;99961.09;4469736;32;33115;-74
2022/10/03 07:19:12;;;;;;;2.75;1.90;;;;;;;15.17;59.47;99953.16;4469432;32;34266;-75
2022/10/03 07:22:18;;;;;;;3.10;1.58;;;;;;;15.04;60.22;99956.47;4468312;32;34245;-77
2022/10/03 07:24:54;;;;;;;;;;;;;;;14.57;62.12;99961.03;4482322;32;34142;-76
2022/10/03 07:27:39;;;;;;;3.97;1.62;;;;;;;14.51;62.25;99959.34;4485811;32;33513;-75
2022/10/03 07:30:08;;;;;;;;;;;;;;;14.82;62.35;99964.94;4485977;32;33536;-74
2022/10/03 07:33:05;;;;;;;6.37;1.80;;;;;;;15.39;59.62;99959.16;4484180;32;34533;-76
2022/10/03 07:38:58;;;;;;;2.65;1.40;;;;;;;15.31;59.44;99967.09;4484084;32;34292;-77
2022/10/03 07:41:44;;;;;;;3.10;1.62;;;;;;;14.93;60.54;99978.31;4485297;32;33918;-79
2022/10/03 07:44:35;;;;;;;1.65;1.48;;;;;;;15.34;58.74;99967.38;4485279;32;34266;-75
2022/10/03 07:47:08;;;;;;;2.42;1.45;;;;;;;15.52;58.21;99971.44;4484214;32;34685;-75
2022/10/03 07:49:50;;;;;;;5.07;1.73;;;;;;;15.64;58.64;99960.22;4485238;32;33121;-74
2022/10/03 07:52:43;;;;;;;3.80;1.90;;;;;;;15.55;58.65;99970.06;4485677;32;33820;-73
2022/10/03 07:55:35;;;;;;;2.00;1.30;;;;;;;14.72;59.97;99977.44;4485615;32;34022;-74
2022/10/03 07:58:42;;;;;;;2.25;1.50;;;;;;;15.16;59.60;99985.16;4485399;32;34545;-82
2022/10/03 08:01:37;;;;;;;5.28;1.60;;;;;;;15.18;58.33;99972.03;4470336;31;33557;-73
2022/10/03 08:04:29;;;;;;;4.30;1.52;;;;;;;15.62;58.26;99980.75;4480323;32;34073;-73
2022/10/03 08:07:18;;;;;;;2.40;1.48;;;;;;;15.72;57.73;99973.38;4467837;32;35060;-71
2022/10/03 08:10:12;;;;;;;3.50;1.45;;;;;;;15.46;57.62;99978.00;4468907;32;33936;-72
2022/10/03 08:13:14;;;;;;;4.00;1.52;;;;;;;15.65;57.69;99983.72;4462374;32;33404;-72
2022/10/03 08:15:54;;;;;;;4.62;1.87;;;;;;;14.98;59.72;99985.69;4469985;32;33975;-79
2022/10/03 08:18:50;;;;;;;3.60;1.67;;;;;;;15.27;57.96;99988.72;4478635;32;33843;-75
2022/10/03 08:21:55;;;;;;;2.28;1.30;;;;;;;15.62;56.62;99988.94;4485285;32;34696;-76
2022/10/03 08:24:49;;;;;;;2.95;1.45;;;;;;;16.20;54.56;99990.16;4466152;32;32819;-76
2022/10/03 08:27:43;;;;;;;3.28;1.30;;;;;;;16.09;55.61;99985.00;4467611;32;33855;-77
2022/10/03 08:30:19;;;;;;;3.37;1.48;;;;;;;15.98;54.69;99976.84;4466899;32;34132;-72
2022/10/03 08:33:11;;;;;;;2.40;1.40;;;;;;;16.37;54.40;99978.03;4480726;32;34031;-75
2022/10/03 08:36:00;;;;;;;3.42;1.23;;;;;;;16.58;53.29;99968.59;4484697;32;33457;-79
2022/10/03 08:38:54;;;;;;;2.05;1.20;;;;;;;16.92;52.72;99964.31;4483383;32;33526;-76
2022/10/03 08:41:56;;;;;;;3.15;1.60;;;;;;;16.45;54.02;99971.97;4485021;32;34285;-75
2022/10/03 08:44:44;;;;;;;3.40;1.50;;;;;;;16.72;53.32;99979.75;4485255;32;33965;-78
2022/10/03 08:47:33;;;;;;;3.05;1.62;;;;;;;17.18;51.71;99968.47;4485268;32;33576;-77
2022/10/03 08:50:23;;;;;;;2.08;1.30;;;;;;;16.39;53.10;99967.59;4483656;32;33547;-89
2022/10/03 08:53:27;;;;;;;1.77;1.20;;;;;;;16.20;53.49;99964.72;4485266;32;34180;-79
2022/10/03 08:56:13;;;;;;;1.90;1.30;;;;;;;16.48;52.28;99974.16;4484932;32;34135;-78
2022/10/03 08:59:05;;;;;;;2.47;1.42;;;;;;;16.39;52.52;99971.19;4485247;32;33603;-82
2022/10/03 09:01:54;;;;;;;3.40;1.80;;;;;;;16.36;52.41;99968.19;4484931;32;35061;-78
2022/10/03 09:04:28;;;;;;;3.65;1.45;;;;;;;16.54;52.96;99983.13;4483745;32;34287;-79
2022/10/03 09:07:15;;;;;;;2.85;1.45;;;;;;;16.29;53.38;99975.91;4485111;32;34728;-89
2022/10/03 09:10:15;;;;;;;2.22;1.48;;;;;;;16.87;52.18;99981.59;4484648;32;34345;-79
2022/10/03 09:13:01;;;;;;;2.20;1.50;;;;;;;17.26;51.92;99980.75;4483687;32;33962;-83
2022/10/03 09:15:53;;;;;;;2.12;1.30;;;;;;;16.79;53.22;99982.97;4484732;32;35138;-86
2022/10/03 09:18:44;;;;;;;3.72;1.33;;;;;;;17.08;51.86;99990.47;4468223;32;33727;-80
2022/10/03 09:22:06;;;;;;;4.20;1.50;;;;;;;16.98;52.31;99982.34;4463695;32;34320;-82
2022/10/03 09:24:57;;;;;;;2.97;1.35;;;;;;;16.98;53.77;99977.69;4448316;32;33892;-80
2022/10/03 09:27:50;;;;;;;2.95;1.60;;;;;;;17.03;53.35;99976.81;4468875;32;34333;-86
2022/10/03 09:30:23;;;;;;;2.85;1.58;;;;;;;17.04;53.39;99991.34;4468410;32;34495;-79
2022/10/03 09:32:56;;;;;;;1.90;1.40;;;;;;;17.24;52.74;99993.94;4468125;32;34192;-82
2022/10/03 09:35:30;;;;;;;2.55;1.45;;;;;;;16.94;52.70;100009.50;4467473;32;33912;-79
2022/10/03 09:38:28;;;;;;;3.47;1.42;;;;;;;17.13;52.95;100003.34;4468610;32;33892;-79
2022/10/03 09:41:33;;;;;;;2.30;1.20;;;;;;;17.32;52.29;100007.03;4468571;32;34668;-78
2022/10/03 09:44:22;;;;;;;3.97;1.70;;;;;;;16.90;51.85;100002.13;4470505;32;34042;-78
2022/10/03 09:50:18;;;;;;;3.83;1.30;;;;;;;17.18;52.85;100001.38;4470383;32;34285;-83
2022/10/03 09:53:19;;;;;;;1.73;1.30;;;;;;;18.01;49.93;100002.25;4470344;32;34791;-90
2022/10/03 09:56:00;;;;;;;3.45;1.17;;;;;;;18.44;48.92;100013.25;4470323;32;34416;-87
2022/10/03 09:59:05;;;;;;;3.58;1.50;;;;;;;17.89;50.15;100018.31;4470348;32;34023;-79
2022/10/03 10:01:53;;;;;;;3.00;1.27;;;;;;;17.17;51.39;100015.34;4470189;32;33828;-87
2022/10/03 10:04:48;;;;;;;1.65;1.27;;;;;;;16.91;52.18;100018.31;4469449;32;33916;-76
2022/10/03 10:07:34;;;;;;;2.33;1.42;;;;;;;16.83;52.11;100020.81;4470750;32;33571;-79
2022/10/03 10:10:24;;;;;;;2.40;1.40;;;;;;;17.28;51.47;100005.97;4470575;32;33946;-94
2022/10/03 10:13:29;;;;;;;4.72;1.60;;;;;;;17.28;51.90;100005.97;4470491;32;33988;-80
2022/10/03 10:17:04;;;;;;;3.53;1.60;;;;;;;17.42;51.34;100014.34;4470341;32;33707;-79
2022/10/03 10:20:11;;;;;;;3.70;1.30;;;;;;;17.21;49.64;100008.19;4451476;32;34635;-76
2022/10/03 10:22:45;;;;;;;4.50;1.80;;;;;;;17.82;49.22;100007.66;4470058;32;34808;-77
2022/10/03 10:25:41;;;;;;;2.10;1.15;;;;;;;17.43;50.33;100013.25;4470165;32;34180;-76
2022/10/03 10:28:29;;;;;;;5.93;2.67;;;;;;;16.92;50.96;100022.66;4469236;32;33713;-76
2022/10/03 10:30:57;;;;;;;3.05;1.58;;;;;;;17.09;51.10;100016.81;4470122;32;33569;-74
2022/10/03 10:33:55;;;;;;;4.10;1.45;;;;;;;16.92;50.56;100010.91;4469211;32;34824;-77
2022/10/03 10:37:03;;;;;;;2.25;1.33;;;;;;;16.79;51.87;100015.06;4470356;32;33942;-74
2022/10/03 10:40:07;;;;;;;1.52;1.02;;;;;;;17.00;51.61;100008.38;4461411;32;33880;-81
2022/10/03 10:43:12;;;;;;;3.00;1.50;;;;;;;17.15;51.62;100009.38;4470246;32;34710;-78
2022/10/03 10:46:03;;;;;;;3.37;1.48;;;;;;;17.36;51.34;100010.81;4483946;32;33729;-75
2022/10/03 10:49:08;;;;;;;2.67;1.50;;;;;;;17.31;51.98;100001.81;4485678;32;34240;-75
2022/10/03 10:51:38;;;;;;;1.55;1.20;;;;;;;16.59;53.09;100014.06;4485687;32;34211;-75
2022/10/03 10:54:23;;;;;;;2.53;1.58;;;;;;;17.15;52.74;99995.66;4484710;32;34478;-73
2022/10/03 10:56:59;;;;;;;1.37;1.12;;;;;;;17.53;52.71;99993.13;4484469;32;34077;-78
2022/10/03 11:00:01;;;;;;;2.72;1.40;;;;;;;17.99;51.24;100003.63;4485282;32;33667;-80
2022/10/03 11:02:45;;;;;;;4.25;1.40;;;;;;;17.30;51.83;100001.00;4484025;32;34862;-79
2022/10/03 11:05:43;;;;;;;1.80;1.30;;;;;;;17.50;50.41;100010.16;4485793;32;34152;-80
2022/10/03 11:08:42;;;;;;;1.30;1.20;;;;;;;17.42;52.14;99998.69;4485525;32;33627;-80
2022/10/03 11:11:54;;;;;;;2.85;1.40;;;;;;;17.28;53.43;99999.63;4485485;32;34032;-80
2022/10/03 11:14:43;;;;;;;3.05;0.90;;;;;;;16.81;55.53;100000.00;4476889;31;34489;-79
2022/10/03 11:17:37;;;;;;;2.45;1.15;;;;;;;16.98;53.34;99999.59;4485619;32;33584;-80
2022/10/03 11:20:20;;;;;;;2.25;1.20;;;;;;;17.33;51.89;99988.63;4485398;32;33495;-79
2022/10/03 11:23:09;;;;;;;1.60;1.08;;;;;;;17.57;52.09;99994.97;4485462;32;34911;-80
2022/10/03 11:26:12;;;;;;;2.90;1.10;;;;;;;16.95;51.45;99999.34;4485429;32;34756;-84
2022/10/03 11:29:13;;;;;;;2.65;1.25;;;;;;;16.95;52.20;99997.44;4451188;32;33126;-81
2022/10/03 11:32:08;;;;;;;1.33;0.95;;;;;;;16.88;53.28;99994.19;4484257;32;33962;-82
2022/10/03 11:34:56;;;;;;;1.75;1.10;;;;;;;16.33;53.88;100007.91;4485504;32;34933;-80
2022/10/03 11:37:42;;;;;;;2.10;1.00;;;;;;;16.77;52.39;99996.16;4485619;32;34630;-79
2022/10/03 11:40:18;;;;;;;2.20;0.80;;;;;;;16.62;52.85;99979.81;4485974;32;33530;-79
2022/10/03 11:43:13;;;;;;;6.37;4.45;;;;;;;17.31;51.11;99991.66;4485098;32;34248;-79
2022/10/03 11:45:49;;;;;;;1.73;1.00;;;;;;;17.02;52.01;99997.12;4485175;32;33957;-79
2022/10/03 11:48:29;;;;;;;7.82;2.37;;;;;;;17.00;52.57;99989.19;4484142;32;34273;-80
2022/10/03 11:51:01;;;;;;;3.05;1.62;;;;;;;17.13;52.77;99995.13;4484144;32;34348;-79
2022/10/03 11:53:35;;;;;;;1.60;1.00;;;;;;;16.65;52.49;99995.69;4485350;32;34094;-80
2022/10/03 11:56:25;;;;;;;1.60;1.10;;;;;;;17.07;52.12;99979.81;4485247;32;34976;-80
2022/10/03 11:59:11;;;;;;;1.98;1.02;;;;;;;16.87;51.58;99981.59;4480598;32;33841;-79
2022/10/03 12:02:01;;;;;;;1.10;1.00;;;;;;;17.81;52.17;99977.72;4483943;32;33552;-83
2022/10/03 12:04:45;;;;;;;1.75;1.20;;;;;;;17.63;50.29;99985.59;4484951;32;34660;-76
2022/10/03 12:10:32;;;;;;;3.42;1.30;;;;;;;17.52;50.14;99996.97;4485411;32;34761;-80
2022/10/03 12:13:05;;;;;;;3.58;1.30;;;;;;;17.91;50.21;99993.31;4483915;32;34306;-81
2022/10/03 12:15:53;;;;;;;1.52;1.12;;;;;;;16.89;51.93;99984.88;4484287;32;33936;-79
2022/10/03 12:18:48;;;;;;;1.40;0.98;;;;;;;16.92;52.71;99987.03;4484986;32;35025;-80
2022/10/03 12:21:26;;;;;;;1.65;1.23;;;;;;;16.91;51.37;99987.31;4485180;32;33794;-79
2022/10/03 12:23:59;;;;;;;1.75;1.10;;;;;;;16.61;51.57;99995.44;4484404;32;34277;-80
2022/10/03 12:26:42;;;;;;;4.32;1.40;;;;;;;16.94;50.87;99997.72;4484506;32;34121;-80
2022/10/03 12:29:14;;;;;;;1.20;1.10;;;;;;;16.08;52.97;99988.84;4485215;32;34095;-80
2022/10/03 12:31:53;;;;;;;1.75;0.90;;;;;;;16.46;52.94;99990.03;4480287;32;160358;-81
2022/10/03 12:34:38;;;;;;;1.55;0.93;;;;;;;16.74;50.61;99982.22;4485525;32;34161;-82
2022/10/03 12:37:24;;;;;;;1.65;1.12;;;;;;;16.49;50.95;99978.50;4484209;32;34011;-80
2022/10/03 12:40:11;;;;;;;1.20;0.98;;;;;;;16.84;51.97;99982.16;4485110;32;34991;-80
2022/10/03 12:42:47;;;;;;;3.33;1.00;;;;;;;17.24;50.10;99984.88;4484964;32;33983;-80
2022/10/03 12:45:24;;;;;;;4.10;1.00;;;;;;;17.08;49.43;99979.50;4483939;32;33779;-79
2022/10/03 12:48:19;;;;;;;6.07;1.70;;;;;;;17.43;48.25;99977.59;4484054;32;33822;-81
2022/10/03 12:51:03;;;;;;;2.60;1.25;;;;;;;17.28;48.28;99986.78;4484934;32;34832;-80
2022/10/03 12:53:53;;;;;;;2.42;0.98;;;;;;;17.01;51.04;99976.28;4483958;32;33598;-81
2022/10/03 12:56:27;;;;;;;0.93;0.88;;;;;;;17.22;48.68;99968.72;4483836;32;33002;-80
2022/10/03 12:59:06;;;;;;;2.17;1.10;;;;;;;16.65;50.56;99971.03;4485166;32;34723;-80
2022/10/03 13:01:58;;;;;;;1.02;0.90;;;;;;;17.03;50.72;99982.31;4484859;32;34689;-81
2022/10/03 13:04:42;;;;;;;1.65;0.93;;;;;;;17.07;49.36;99988.84;4484955;32;32976;-80
2022/10/03 13:07:37;;;;;;;2.85;0.95;;;;;;;16.75;55.14;100024.94;4483702;32;33127;-81
2022/10/03 13:10:27;;;;;;;2.95;1.10;;;;;;;15.98;60.09;100015.16;4484902;32;34230;-89
2022/10/03 13:13:03;;;;;;;2.45;1.37;;;;;;;15.80;62.74;100018.47;4483296;32;35009;-80
2022/10/03 13:15:46;;;;;;;2.75;1.50;;;;;;;15.50;65.35;100014.66;4484891;32;33322;-85
2022/10/03 13:18:29;;;;;;;2.75;1.52;;;;;;;15.42;65.73;100001.56;4484669;32;33731;-81
2022/10/03 13:21:10;;;;;;;1.95;1.62;;;;;;;15.16;68.05;99987.88;4486525;32;33504;-85
2022/10/03 13:24:05;;;;;;;3.53;1.62;;;;;;;15.46;66.89;99990.88;4485680;32;33477;-85
2022/10/03 13:26:51;;;;;;;4.95;1.85;;;;;;;15.33;67.59;99984.88;4485669;32;33931;-80
2022/10/03 13:29:28;;;;;;;3.22;1.37;;;;;;;15.39;64.76;99983.75;4485308;32;32998;-80
2022/10/03 13:32:05;;;;;;;1.42;1.25;;;;;;;15.37;63.99;99988.69;4485352;32;34652;-87